MST,Max TemperatureF,Mean TemperatureF,Min TemperatureF,Max Dew PointF,MeanDew PointF,Min DewpointF,Max Humidity, Mean Humidity, Min Humidity, Max Sea Level PressureIn, Mean Sea Level PressureIn, Min Sea Level PressureIn, Max VisibilityMiles, Mean VisibilityMiles, Min VisibilityMiles, Max Wind SpeedMPH, Mean Wind SpeedMPH, Max Gust SpeedMPH,PrecipitationIn, CloudCover, Events, WindDirDegrees
2013-2-1,42,38,33,34,31,27,100,80,59,30.46,30.28,30.11,10,10,8,15,4,20,0.01,8,Rain,297
2013-2-2,41,32,22,27,25,21,100,78,55,30.57,30.48,30.37,10,10,10,8,1,9,0.00,0,,270
2013-2-3,38,28,17,28,23,18,100,82,64,30.35,30.21,30.06,10,8,0,6,1,7,0.00,2,Fog,254
2013-2-4,44,38,31,33,29,28,89,73,57,30.13,30.08,30.02,10,10,10,15,4,17,T,6,,314
2013-2-5,42,37,31,34,31,27,92,81,70,30.06,29.94,29.85,10,10,3,12,2,14,0.01,7,Snow,277
2013-2-6,41,34,27,32,29,23,96,78,59,30.15,30.04,29.92,10,9,2,13,3,16,0.02,6,Snow,102
2013-2-7,36,30,23,28,25,22,92,78,64,30.13,30.05,29.99,10,10,10,9,2,16,0.00,5,,277
2013-2-8,40,34,27,31,27,23,100,85,69,30.12,30.04,29.98,10,10,8,12,4,15,T,7,,47
2013-2-9,34,31,27,28,25,21,92,77,61,30.17,30.02,29.92,10,6,1,14,8,18,0.03,7,Snow,325
2013-2-10,38,30,22,27,23,17,92,70,48,30.28,30.22,30.10,10,8,1,16,4,22,0.00,5,Snow,112
2013-2-11,33,27,21,26,21,18,96,79,61,30.27,30.23,30.13,10,10,10,10,2,14,0.00,8,,145
2013-2-12,40,35,30,33,28,25,96,78,59,30.30,30.25,30.17,10,8,1,10,3,15,0.03,8,Snow,94
2013-2-13,41,37,33,34,31,29,96,80,64,30.30,30.19,30.04,10,10,8,20,7,23,0.04,7,Rain-Snow,330
2013-2-14,42,35,28,29,26,24,85,67,49,30.51,30.43,30.30,10,10,10,17,7,22,T,7,,320
2013-2-15,46,38,29,31,28,26,85,72,58,30.55,30.48,30.38,10,10,10,10,3,13,0.00,6,,288
2013-2-16,40,31,22,34,28,21,100,85,70,30.38,30.13,29.86,10,9,1,16,3,21,0.04,5,Snow,316
2013-2-17,36,34,31,32,29,25,100,85,69,30.15,29.99,29.87,10,7,1,17,5,24,0.06,8,Snow,329
2013-2-18,42,34,26,28,25,18,100,69,38,30.17,30.05,29.87,10,6,0,17,3,20,0.01,5,Fog-Snow,109
2013-2-19,41,34,26,28,24,20,92,69,45,29.86,29.78,29.67,10,10,10,10,4,15,0.00,5,,305
2013-2-20,38,33,27,29,25,20,100,74,48,30.01,29.91,29.81,10,8,2,14,5,20,0.01,8,Snow,319
2013-2-21,35,28,20,27,20,15,92,70,47,30.13,30.05,30.01,10,10,10,10,3,15,0.00,6,,304
2013-2-22,42,35,27,29,26,24,100,76,51,30.06,29.91,29.69,10,10,9,18,4,24,0.00,8,,200
2013-2-23,39,34,28,31,23,16,89,68,47,30.23,29.90,29.65,10,9,1,25,10,30,0.01,7,Rain-Snow,289
2013-2-24,39,32,25,22,20,20,81,65,48,30.34,30.28,30.21,10,10,10,17,4,23,T,7,,323
2013-2-25,43,36,28,29,23,18,75,59,43,30.19,30.03,29.94,10,9,2,23,6,32,0.01,8,Snow,176
2013-2-26,38,32,26,28,24,19,100,74,48,30.36,30.24,30.02,10,10,4,15,4,20,T,7,Snow,319
2013-2-27,42,33,23,22,20,18,81,62,43,30.39,30.35,30.24,10,10,10,17,3,22,0.00,5,,351
2013-2-28,43,36,28,33,29,22,100,81,62,30.44,30.34,30.27,10,6,1,7,2,10,0.02,8,Snow,249